sensor_id;sensor_type;location;lat;lon;timestamp;temperature;humidity
23267;DHT22;11802;53.160;8.214;2023-04-25T00:00:35;7.70;99.90
23267;DHT22;11802;53.160;8.214;2023-04-25T00:03:01;7.70;99.90
23267;DHT22;11802;53.160;8.214;2023-04-25T00:05:27;7.70;99.90
23267;DHT22;11802;53.160;8.214;2023-04-25T00:07:52;7.60;99.90
23267;DHT22;11802;53.160;8.214;2023-04-25T00:10:19;7.60;99.90
23267;DHT22;11802;53.160;8.214;2023-04-25T00:12:44;7.50;99.90
23267;DHT22;11802;53.160;8.214;2023-04-25T00:15:11;7.40;99.90
23267;DHT22;11802;53.160;8.214;2023-04-25T00:17:37;7.40;99.90
23267;DHT22;11802;53.160;8.214;2023-04-25T00:20:04;7.40;99.90
23267;DHT22;11802;53.160;8.214;2023-04-25T00:22:35;7.40;99.90
23267;DHT22;11802;53.160;8.214;2023-04-25T00:25:05;7.40;99.90
23267;DHT22;11802;53.160;8.214;2023-04-25T00:27:31;7.40;99.90
23267;DHT22;11802;53.160;8.214;2023-04-25T00:29:57;7.30;99.90
23267;DHT22;11802;53.160;8.214;2023-04-25T00:32:23;7.30;99.90
23267;DHT22;11802;53.160;8.214;2023-04-25T00:34:48;7.30;99.90
23267;DHT22;11802;53.160;8.214;2023-04-25T00:37:14;7.30;99.90
23267;DHT22;11802;53.160;8.214;2023-04-25T00:39:39;7.30;99.90
23267;DHT22;11802;53.160;8.214;2023-04-25T00:42:05;7.30;99.90
23267;DHT22;11802;53.160;8.214;2023-04-25T00:44:31;7.30;99.90
23267;DHT22;11802;53.160;8.214;2023-04-25T00:46:57;7.20;99.90
23267;DHT22;11802;53.160;8.214;2023-04-25T00:49:23;7.20;99.90
23267;DHT22;11802;53.160;8.214;2023-04-25T00:51:48;7.10;99.90
23267;DHT22;11802;53.160;8.214;2023-04-25T00:54:14;7.10;99.90
23267;DHT22;11802;53.160;8.214;2023-04-25T00:56:41;7.10;99.90
23267;DHT22;11802;53.160;8.214;2023-04-25T00:59:09;7.10;99.90
23267;DHT22;11802;53.160;8.214;2023-04-25T01:01:35;7.10;99.90
23267;DHT22;11802;53.160;8.214;2023-04-25T01:04:01;7.00;99.90
23267;DHT22;11802;53.160;8.214;2023-04-25T01:06:26;7.00;99.90
23267;DHT22;11802;53.160;8.214;2023-04-25T01:08:53;7.00;99.90
23267;DHT22;11802;53.160;8.214;2023-04-25T01:11:19;7.00;99.90
23267;DHT22;11802;53.160;8.214;2023-04-25T01:13:45;6.90;99.90
23267;DHT22;11802;53.160;8.214;2023-04-25T01:16:10;6.90;99.90
23267;DHT22;11802;53.160;8.214;2023-04-25T01:18:38;6.90;99.90
23267;DHT22;11802;53.160;8.214;2023-04-25T01:21:09;6.90;99.90
23267;DHT22;11802;53.160;8.214;2023-04-25T01:23:35;7.00;99.90
23267;DHT22;11802;53.160;8.214;2023-04-25T01:26:01;6.90;99.90
23267;DHT22;11802;53.160;8.214;2023-04-25T01:28:28;6.90;99.90
23267;DHT22;11802;53.160;8.214;2023-04-25T01:30:54;6.90;99.90
23267;DHT22;11802;53.160;8.214;2023-04-25T01:33:21;6.90;99.90
23267;DHT22;11802;53.160;8.214;2023-04-25T01:35:46;6.90;99.90
23267;DHT22;11802;53.160;8.214;2023-04-25T01:38:13;6.90;99.90
23267;DHT22;11802;53.160;8.214;2023-04-25T01:40:40;6.90;99.90
23267;DHT22;11802;53.160;8.214;2023-04-25T01:43:07;6.90;99.90
23267;DHT22;11802;53.160;8.214;2023-04-25T01:45:37;6.90;99.90
23267;DHT22;11802;53.160;8.214;2023-04-25T01:48:05;6.90;99.90
23267;DHT22;11802;53.160;8.214;2023-04-25T01:50:31;6.90;99.90
23267;DHT22;11802;53.160;8.214;2023-04-25T01:52:56;6.90;99.90
23267;DHT22;11802;53.160;8.214;2023-04-25T01:55:22;6.80;99.90
23267;DHT22;11802;53.160;8.214;2023-04-25T01:57:47;6.80;99.90
23267;DHT22;11802;53.160;8.214;2023-04-25T02:00:13;6.70;99.90
23267;DHT22;11802;53.160;8.214;2023-04-25T02:02:39;6.70;99.90
23267;DHT22;11802;53.160;8.214;2023-04-25T02:05:05;6.60;99.90
23267;DHT22;11802;53.160;8.214;2023-04-25T02:07:31;6.60;99.90
23267;DHT22;11802;53.160;8.214;2023-04-25T02:09:57;6.50;99.90
23267;DHT22;11802;53.160;8.214;2023-04-25T02:12:22;6.50;99.90
23267;DHT22;11802;53.160;8.214;2023-04-25T02:14:48;6.60;99.90
23267;DHT22;11802;53.160;8.214;2023-04-25T02:17:13;6.60;99.90
23267;DHT22;11802;53.160;8.214;2023-04-25T02:19:39;6.60;99.90
23267;DHT22;11802;53.160;8.214;2023-04-25T02:22:05;6.60;99.90
23267;DHT22;11802;53.160;8.214;2023-04-25T02:24:30;6.60;99.90
23267;DHT22;11802;53.160;8.214;2023-04-25T02:26:57;6.50;99.90
23267;DHT22;11802;53.160;8.214;2023-04-25T02:29:22;6.60;99.90
23267;DHT22;11802;53.160;8.214;2023-04-25T02:31:48;6.60;99.90
23267;DHT22;11802;53.160;8.214;2023-04-25T02:34:14;6.60;99.90
23267;DHT22;11802;53.160;8.214;2023-04-25T02:36:39;6.60;99.90
23267;DHT22;11802;53.160;8.214;2023-04-25T02:39:05;6.70;99.90
23267;DHT22;11802;53.160;8.214;2023-04-25T02:41:30;6.60;99.90
23267;DHT22;11802;53.160;8.214;2023-04-25T02:43:56;6.60;99.90
23267;DHT22;11802;53.160;8.214;2023-04-25T02:46:21;6.60;99.90
23267;DHT22;11802;53.160;8.214;2023-04-25T02:48:47;6.60;99.90
23267;DHT22;11802;53.160;8.214;2023-04-25T02:51:12;6.60;99.90
23267;DHT22;11802;53.160;8.214;2023-04-25T02:53:39;6.50;99.90
23267;DHT22;11802;53.160;8.214;2023-04-25T02:56:05;6.50;99.90
23267;DHT22;11802;53.160;8.214;2023-04-25T02:58:30;6.50;95.00
23267;DHT22;11802;53.160;8.214;2023-04-25T03:00:56;6.50;84.00
23267;DHT22;11802;53.160;8.214;2023-04-25T03:03:21;6.50;68.40
23267;DHT22;11802;53.160;8.214;2023-04-25T03:05:49;6.50;63.50
23267;DHT22;11802;53.160;8.214;2023-04-25T03:08:16;6.50;58.50
23267;DHT22;11802;53.160;8.214;2023-04-25T03:10:41;6.40;56.30
23267;DHT22;11802;53.160;8.214;2023-04-25T03:13:07;6.30;75.90
23267;DHT22;11802;53.160;8.214;2023-04-25T03:15:32;6.30;86.90
23267;DHT22;11802;53.160;8.214;2023-04-25T03:17:58;6.30;78.70
23267;DHT22;11802;53.160;8.214;2023-04-25T03:20:23;6.30;56.30
23267;DHT22;11802;53.160;8.214;2023-04-25T03:22:49;6.30;55.40
23267;DHT22;11802;53.160;8.214;2023-04-25T03:25:15;6.20;32.30
23267;DHT22;11802;53.160;8.214;2023-04-25T03:27:41;6.20;38.50
23267;DHT22;11802;53.160;8.214;2023-04-25T03:30:07;6.20;35.00
23267;DHT22;11802;53.160;8.214;2023-04-25T03:32:34;6.20;28.10
23267;DHT22;11802;53.160;8.214;2023-04-25T03:35:00;6.20;29.10
23267;DHT22;11802;53.160;8.214;2023-04-25T03:37:25;6.10;22.40
23267;DHT22;11802;53.160;8.214;2023-04-25T03:39:51;6.10;27.20
23267;DHT22;11802;53.160;8.214;2023-04-25T03:42:16;6.10;24.60
23267;DHT22;11802;53.160;8.214;2023-04-25T03:44:43;6.10;29.60
23267;DHT22;11802;53.160;8.214;2023-04-25T03:47:08;6.10;24.60
23267;DHT22;11802;53.160;8.214;2023-04-25T03:49:34;6.10;37.30
23267;DHT22;11802;53.160;8.214;2023-04-25T03:52:01;6.10;39.90
23267;DHT22;11802;53.160;8.214;2023-04-25T03:54:26;6.00;39.00
23267;DHT22;11802;53.160;8.214;2023-04-25T03:56:52;6.00;43.00
23267;DHT22;11802;53.160;8.214;2023-04-25T03:59:17;6.00;53.50
23267;DHT22;11802;53.160;8.214;2023-04-25T04:01:43;5.90;52.10
23267;DHT22;11802;53.160;8.214;2023-04-25T04:04:08;5.90;32.40
23267;DHT22;11802;53.160;8.214;2023-04-25T04:06:34;5.90;29.70
23267;DHT22;11802;53.160;8.214;2023-04-25T04:09:00;5.90;1.00
23267;DHT22;11802;53.160;8.214;2023-04-25T04:11:25;6.00;1.00
23267;DHT22;11802;53.160;8.214;2023-04-25T04:13:51;6.00;1.00
23267;DHT22;11802;53.160;8.214;2023-04-25T04:16:16;6.00;1.00
23267;DHT22;11802;53.160;8.214;2023-04-25T04:18:42;6.00;1.00
23267;DHT22;11802;53.160;8.214;2023-04-25T04:21:07;6.10;1.00
23267;DHT22;11802;53.160;8.214;2023-04-25T04:23:34;6.10;1.00
23267;DHT22;11802;53.160;8.214;2023-04-25T04:26:00;6.10;1.00
23267;DHT22;11802;53.160;8.214;2023-04-25T04:28:26;6.20;1.00
23267;DHT22;11802;53.160;8.214;2023-04-25T04:30:52;6.20;1.00
23267;DHT22;11802;53.160;8.214;2023-04-25T04:33:18;6.20;1.00
23267;DHT22;11802;53.160;8.214;2023-04-25T04:35:46;6.10;1.00
23267;DHT22;11802;53.160;8.214;2023-04-25T04:38:12;6.20;1.00
23267;DHT22;11802;53.160;8.214;2023-04-25T04:40:40;6.20;1.00
23267;DHT22;11802;53.160;8.214;2023-04-25T04:43:07;6.20;1.00
23267;DHT22;11802;53.160;8.214;2023-04-25T04:45:34;6.30;1.00
23267;DHT22;11802;53.160;8.214;2023-04-25T04:47:59;6.30;1.00
23267;DHT22;11802;53.160;8.214;2023-04-25T04:50:25;6.30;1.00
23267;DHT22;11802;53.160;8.214;2023-04-25T04:52:51;6.30;1.00
23267;DHT22;11802;53.160;8.214;2023-04-25T04:55:17;6.30;1.00
23267;DHT22;11802;53.160;8.214;2023-04-25T04:57:42;6.30;1.00
23267;DHT22;11802;53.160;8.214;2023-04-25T05:00:08;6.30;1.00
23267;DHT22;11802;53.160;8.214;2023-04-25T05:02:39;6.30;1.00
23267;DHT22;11802;53.160;8.214;2023-04-25T05:05:05;6.30;1.00
23267;DHT22;11802;53.160;8.214;2023-04-25T05:07:31;6.30;1.00
23267;DHT22;11802;53.160;8.214;2023-04-25T05:09:56;6.30;1.00
23267;DHT22;11802;53.160;8.214;2023-04-25T05:12:22;6.70;1.00
23267;DHT22;11802;53.160;8.214;2023-04-25T05:14:47;7.10;1.00
23267;DHT22;11802;53.160;8.214;2023-04-25T05:17:13;7.90;1.00
23267;DHT22;11802;53.160;8.214;2023-04-25T05:19:39;8.90;99.90
23267;DHT22;11802;53.160;8.214;2023-04-25T05:22:05;9.50;99.90
23267;DHT22;11802;53.160;8.214;2023-04-25T05:24:30;9.80;99.90
23267;DHT22;11802;53.160;8.214;2023-04-25T05:26:56;10.30;1.00
23267;DHT22;11802;53.160;8.214;2023-04-25T05:29:22;10.70;1.00
23267;DHT22;11802;53.160;8.214;2023-04-25T05:31:47;10.90;1.00
23267;DHT22;11802;53.160;8.214;2023-04-25T05:34:13;11.30;1.00
23267;DHT22;11802;53.160;8.214;2023-04-25T05:36:39;11.60;1.00
23267;DHT22;11802;53.160;8.214;2023-04-25T05:39:04;11.60;1.00
23267;DHT22;11802;53.160;8.214;2023-04-25T05:41:31;11.90;99.90
23267;DHT22;11802;53.160;8.214;2023-04-25T05:43:57;12.10;1.00
23267;DHT22;11802;53.160;8.214;2023-04-25T05:46:22;12.00;1.00
23267;DHT22;11802;53.160;8.214;2023-04-25T05:48:48;12.20;99.90
23267;DHT22;11802;53.160;8.214;2023-04-25T05:51:13;12.70;1.00
23267;DHT22;11802;53.160;8.214;2023-04-25T05:53:39;12.80;99.90
23267;DHT22;11802;53.160;8.214;2023-04-25T05:56:05;13.00;1.00
23267;DHT22;11802;53.160;8.214;2023-04-25T05:58:30;12.70;1.00
23267;DHT22;11802;53.160;8.214;2023-04-25T06:00:56;12.10;99.90
23267;DHT22;11802;53.160;8.214;2023-04-25T06:03:21;11.40;99.90
23267;DHT22;11802;53.160;8.214;2023-04-25T06:05:47;11.20;1.00
23267;DHT22;11802;53.160;8.214;2023-04-25T06:08:13;10.80;1.00
23267;DHT22;11802;53.160;8.214;2023-04-25T06:10:39;10.50;1.00
23267;DHT22;11802;53.160;8.214;2023-04-25T06:13:05;10.50;99.90
23267;DHT22;11802;53.160;8.214;2023-04-25T06:15:31;11.50;99.90
23267;DHT22;11802;53.160;8.214;2023-04-25T06:18:01;13.00;99.90
23267;DHT22;11802;53.160;8.214;2023-04-25T06:20:26;14.50;1.00
23267;DHT22;11802;53.160;8.214;2023-04-25T06:22:52;15.50;1.00
23267;DHT22;11802;53.160;8.214;2023-04-25T06:25:21;16.70;99.90
23267;DHT22;11802;53.160;8.214;2023-04-25T06:27:46;17.80;99.90
23267;DHT22;11802;53.160;8.214;2023-04-25T06:30:12;17.80;1.00
23267;DHT22;11802;53.160;8.214;2023-04-25T06:32:41;17.90;1.00
23267;DHT22;11802;53.160;8.214;2023-04-25T06:35:06;18.20;1.00
23267;DHT22;11802;53.160;8.214;2023-04-25T06:37:32;18.60;1.00
23267;DHT22;11802;53.160;8.214;2023-04-25T06:39:58;19.10;1.00
23267;DHT22;11802;53.160;8.214;2023-04-25T06:42:23;19.60;1.00
23267;DHT22;11802;53.160;8.214;2023-04-25T06:44:49;19.70;99.90
23267;DHT22;11802;53.160;8.214;2023-04-25T06:47:15;20.70;99.90
23267;DHT22;11802;53.160;8.214;2023-04-25T06:49:40;21.10;99.90
23267;DHT22;11802;53.160;8.214;2023-04-25T06:52:07;21.50;99.90
23267;DHT22;11802;53.160;8.214;2023-04-25T06:54:33;21.00;99.90
23267;DHT22;11802;53.160;8.214;2023-04-25T06:56:59;21.30;99.90
23267;DHT22;11802;53.160;8.214;2023-04-25T06:59:26;21.70;99.90
23267;DHT22;11802;53.160;8.214;2023-04-25T07:01:51;21.20;99.90
23267;DHT22;11802;53.160;8.214;2023-04-25T07:04:17;21.10;99.90
23267;DHT22;11802;53.160;8.214;2023-04-25T07:06:42;21.00;99.90
23267;DHT22;11802;53.160;8.214;2023-04-25T07:09:09;21.10;99.90
23267;DHT22;11802;53.160;8.214;2023-04-25T07:11:38;21.60;99.90
23267;DHT22;11802;53.160;8.214;2023-04-25T07:14:03;22.00;99.90
23267;DHT22;11802;53.160;8.214;2023-04-25T07:16:29;22.10;99.90
23267;DHT22;11802;53.160;8.214;2023-04-25T07:18:55;21.50;99.90
23267;DHT22;11802;53.160;8.214;2023-04-25T07:21:20;21.30;99.90
23267;DHT22;11802;53.160;8.214;2023-04-25T07:23:46;21.40;99.90
23267;DHT22;11802;53.160;8.214;2023-04-25T07:26:12;21.20;99.90
23267;DHT22;11802;53.160;8.214;2023-04-25T07:28:38;20.10;99.90
23267;DHT22;11802;53.160;8.214;2023-04-25T07:31:14;18.70;99.90
23267;DHT22;11802;53.160;8.214;2023-04-25T07:33:44;17.10;99.90
23267;DHT22;11802;53.160;8.214;2023-04-25T07:36:10;16.30;99.90
23267;DHT22;11802;53.160;8.214;2023-04-25T07:38:36;15.40;99.90
23267;DHT22;11802;53.160;8.214;2023-04-25T07:41:02;14.70;99.90
23267;DHT22;11802;53.160;8.214;2023-04-25T07:43:28;14.60;1.00
23267;DHT22;11802;53.160;8.214;2023-04-25T07:45:53;13.70;1.00
23267;DHT22;11802;53.160;8.214;2023-04-25T07:48:19;13.10;99.90
23267;DHT22;11802;53.160;8.214;2023-04-25T07:50:45;12.70;99.90
23267;DHT22;11802;53.160;8.214;2023-04-25T07:53:11;12.10;1.00
23267;DHT22;11802;53.160;8.214;2023-04-25T07:55:36;10.70;9.90
23267;DHT22;11802;53.160;8.214;2023-04-25T07:58:08;10.30;99.90
23267;DHT22;11802;53.160;8.214;2023-04-25T08:00:34;9.80;1.00
23267;DHT22;11802;53.160;8.214;2023-04-25T08:03:00;9.70;99.90
23267;DHT22;11802;53.160;8.214;2023-04-25T08:05:25;9.90;1.00
23267;DHT22;11802;53.160;8.214;2023-04-25T08:07:51;10.10;99.90
23267;DHT22;11802;53.160;8.214;2023-04-25T08:10:16;10.30;1.00
23267;DHT22;11802;53.160;8.214;2023-04-25T08:12:42;11.00;99.90
23267;DHT22;11802;53.160;8.214;2023-04-25T08:15:08;11.80;1.00
23267;DHT22;11802;53.160;8.214;2023-04-25T08:17:34;12.50;1.00
23267;DHT22;11802;53.160;8.214;2023-04-25T08:20:00;12.80;1.00
23267;DHT22;11802;53.160;8.214;2023-04-25T08:22:26;13.70;99.90
23267;DHT22;11802;53.160;8.214;2023-04-25T08:24:51;15.10;1.00
23267;DHT22;11802;53.160;8.214;2023-04-25T08:27:18;16.80;1.00
23267;DHT22;11802;53.160;8.214;2023-04-25T08:29:44;18.00;1.00
23267;DHT22;11802;53.160;8.214;2023-04-25T08:32:10;18.00;99.90
23267;DHT22;11802;53.160;8.214;2023-04-25T08:34:35;17.50;99.90
23267;DHT22;11802;53.160;8.214;2023-04-25T08:37:03;16.60;99.90
23267;DHT22;11802;53.160;8.214;2023-04-25T08:39:29;16.20;1.00
23267;DHT22;11802;53.160;8.214;2023-04-25T08:41:55;15.30;1.00
23267;DHT22;11802;53.160;8.214;2023-04-25T08:44:22;14.30;1.00
23267;DHT22;11802;53.160;8.214;2023-04-25T08:46:49;13.10;1.00
23267;DHT22;11802;53.160;8.214;2023-04-25T08:49:16;12.50;1.00
23267;DHT22;11802;53.160;8.214;2023-04-25T08:51:46;12.00;1.00
23267;DHT22;11802;53.160;8.214;2023-04-25T08:54:13;11.90;1.00
23267;DHT22;11802;53.160;8.214;2023-04-25T08:56:47;12.10;1.00
23267;DHT22;11802;53.160;8.214;2023-04-25T08:59:13;12.80;1.00
23267;DHT22;11802;53.160;8.214;2023-04-25T09:01:39;13.80;99.90
23267;DHT22;11802;53.160;8.214;2023-04-25T09:04:05;15.40;99.90
23267;DHT22;11802;53.160;8.214;2023-04-25T09:06:32;16.60;1.00
23267;DHT22;11802;53.160;8.214;2023-04-25T09:09:04;17.50;1.00
23267;DHT22;11802;53.160;8.214;2023-04-25T09:11:31;18.60;99.90
23267;DHT22;11802;53.160;8.214;2023-04-25T09:14:19;19.30;1.00
23267;DHT22;11802;53.160;8.214;2023-04-25T09:16:59;18.60;1.00
23267;DHT22;11802;53.160;8.214;2023-04-25T09:19:30;19.00;99.90
23267;DHT22;11802;53.160;8.214;2023-04-25T09:21:58;19.70;99.90
23267;DHT22;11802;53.160;8.214;2023-04-25T09:27:12;19.10;99.90
23267;DHT22;11802;53.160;8.214;2023-04-25T09:29:40;18.70;99.90
23267;DHT22;11802;53.160;8.214;2023-04-25T09:32:20;17.80;99.90
23267;DHT22;11802;53.160;8.214;2023-04-25T09:34:50;16.90;99.90
23267;DHT22;11802;53.160;8.214;2023-04-25T09:37:21;15.10;1.00
23267;DHT22;11802;53.160;8.214;2023-04-25T09:39:58;14.00;1.00
23267;DHT22;11802;53.160;8.214;2023-04-25T09:42:27;12.70;99.90
23267;DHT22;11802;53.160;8.214;2023-04-25T09:44:55;11.80;1.00
23267;DHT22;11802;53.160;8.214;2023-04-25T09:47:23;11.70;1.00
23267;DHT22;11802;53.160;8.214;2023-04-25T09:49:50;11.80;1.00
23267;DHT22;11802;53.160;8.214;2023-04-25T09:52:21;11.70;1.00
23267;DHT22;11802;53.160;8.214;2023-04-25T09:54:48;11.70;1.00
23267;DHT22;11802;53.160;8.214;2023-04-25T09:57:19;11.70;99.90
23267;DHT22;11802;53.160;8.214;2023-04-25T09:59:55;11.60;1.00
23267;DHT22;11802;53.160;8.214;2023-04-25T10:02:25;11.90;1.00
23267;DHT22;11802;53.160;8.214;2023-04-25T10:04:55;12.10;42.50
23267;DHT22;11802;53.160;8.214;2023-04-25T10:07:26;12.50;90.40
23267;DHT22;11802;53.160;8.214;2023-04-25T10:09:58;13.00;1.00
23267;DHT22;11802;53.160;8.214;2023-04-25T10:12:26;13.60;1.00
23267;DHT22;11802;53.160;8.214;2023-04-25T10:14:52;13.80;1.00
23267;DHT22;11802;53.160;8.214;2023-04-25T10:17:20;13.90;99.90
23267;DHT22;11802;53.160;8.214;2023-04-25T10:19:47;14.50;99.90
23267;DHT22;11802;53.160;8.214;2023-04-25T10:22:26;15.00;99.90
23267;DHT22;11802;53.160;8.214;2023-04-25T10:24:55;15.70;1.00
23267;DHT22;11802;53.160;8.214;2023-04-25T10:27:21;16.60;1.00
23267;DHT22;11802;53.160;8.214;2023-04-25T10:30:00;16.40;1.00
23267;DHT22;11802;53.160;8.214;2023-04-25T10:32:26;16.10;1.00
23267;DHT22;11802;53.160;8.214;2023-04-25T10:34:52;16.60;1.00
23267;DHT22;11802;53.160;8.214;2023-04-25T10:37:18;17.20;1.00
23267;DHT22;11802;53.160;8.214;2023-04-25T10:39:44;17.90;1.00
23267;DHT22;11802;53.160;8.214;2023-04-25T10:42:12;18.20;99.90
23267;DHT22;11802;53.160;8.214;2023-04-25T10:44:38;17.00;99.90
23267;DHT22;11802;53.160;8.214;2023-04-25T10:47:07;16.80;1.00
23267;DHT22;11802;53.160;8.214;2023-04-25T10:49:36;15.70;1.00
23267;DHT22;11802;53.160;8.214;2023-04-25T10:54:51;15.60;54.80
23267;DHT22;11802;53.160;8.214;2023-04-25T10:57:40;15.90;99.90
23267;DHT22;11802;53.160;8.214;2023-04-25T11:00:17;16.50;99.90
23267;DHT22;11802;53.160;8.214;2023-04-25T11:02:45;17.00;1.00
23267;DHT22;11802;53.160;8.214;2023-04-25T11:05:23;17.60;99.90
23267;DHT22;11802;53.160;8.214;2023-04-25T11:07:55;18.10;1.00
23267;DHT22;11802;53.160;8.214;2023-04-25T11:10:31;17.60;99.90
23267;DHT22;11802;53.160;8.214;2023-04-25T11:12:59;17.60;99.90
23267;DHT22;11802;53.160;8.214;2023-04-25T11:15:26;17.00;99.90
23267;DHT22;11802;53.160;8.214;2023-04-25T11:17:55;16.90;99.90
23267;DHT22;11802;53.160;8.214;2023-04-25T11:20:21;16.30;99.90
23267;DHT22;11802;53.160;8.214;2023-04-25T11:22:47;16.00;99.90
23267;DHT22;11802;53.160;8.214;2023-04-25T11:25:15;15.90;99.90
23267;DHT22;11802;53.160;8.214;2023-04-25T11:27:55;16.40;99.90
23267;DHT22;11802;53.160;8.214;2023-04-25T11:30:23;16.70;99.90
23267;DHT22;11802;53.160;8.214;2023-04-25T11:32:49;16.60;99.90
23267;DHT22;11802;53.160;8.214;2023-04-25T11:35:15;16.20;99.90
23267;DHT22;11802;53.160;8.214;2023-04-25T11:37:42;14.60;1.00
23267;DHT22;11802;53.160;8.214;2023-04-25T11:40:08;13.90;1.00
23267;DHT22;11802;53.160;8.214;2023-04-25T11:42:41;13.50;1.00
23267;DHT22;11802;53.160;8.214;2023-04-25T11:45:08;13.60;1.00
23267;DHT22;11802;53.160;8.214;2023-04-25T11:47:35;14.20;1.00
23267;DHT22;11802;53.160;8.214;2023-04-25T11:50:05;15.20;99.90
23267;DHT22;11802;53.160;8.214;2023-04-25T11:52:45;15.50;99.90
23267;DHT22;11802;53.160;8.214;2023-04-25T11:55:15;15.90;99.90
23267;DHT22;11802;53.160;8.214;2023-04-25T11:57:42;16.20;99.90
23267;DHT22;11802;53.160;8.214;2023-04-25T12:00:12;16.00;1.00
23267;DHT22;11802;53.160;8.214;2023-04-25T12:02:47;15.60;99.90
23267;DHT22;11802;53.160;8.214;2023-04-25T12:05:14;15.10;99.90
23267;DHT22;11802;53.160;8.214;2023-04-25T12:07:41;15.30;99.90
23267;DHT22;11802;53.160;8.214;2023-04-25T12:10:11;15.20;1.00
23267;DHT22;11802;53.160;8.214;2023-04-25T12:12:38;14.80;99.90
23267;DHT22;11802;53.160;8.214;2023-04-25T12:15:25;15.10;99.90
23267;DHT22;11802;53.160;8.214;2023-04-25T12:17:52;15.50;99.90
23267;DHT22;11802;53.160;8.214;2023-04-25T12:20:21;16.30;99.90
23267;DHT22;11802;53.160;8.214;2023-04-25T12:22:49;16.90;99.90
23267;DHT22;11802;53.160;8.214;2023-04-25T12:31:04;16.90;99.90
23267;DHT22;11802;53.160;8.214;2023-04-25T12:33:37;16.10;99.90
23267;DHT22;11802;53.160;8.214;2023-04-25T12:36:04;15.70;99.90
23267;DHT22;11802;53.160;8.214;2023-04-25T12:38:38;15.80;99.90
23267;DHT22;11802;53.160;8.214;2023-04-25T12:41:05;16.00;99.90
23267;DHT22;11802;53.160;8.214;2023-04-25T12:43:31;16.10;99.90
23267;DHT22;11802;53.160;8.214;2023-04-25T12:45:56;16.10;99.90
23267;DHT22;11802;53.160;8.214;2023-04-25T12:48:23;15.80;99.90
23267;DHT22;11802;53.160;8.214;2023-04-25T12:50:50;16.00;99.90
23267;DHT22;11802;53.160;8.214;2023-04-25T12:53:22;16.40;99.90
23267;DHT22;11802;53.160;8.214;2023-04-25T12:55:47;16.30;99.90
23267;DHT22;11802;53.160;8.214;2023-04-25T12:58:18;16.00;99.90
23267;DHT22;11802;53.160;8.214;2023-04-25T13:00:44;15.80;99.90
23267;DHT22;11802;53.160;8.214;2023-04-25T13:03:10;15.80;99.90
23267;DHT22;11802;53.160;8.214;2023-04-25T13:06:03;15.30;99.90
23267;DHT22;11802;53.160;8.214;2023-04-25T13:08:38;14.20;99.90
23267;DHT22;11802;53.160;8.214;2023-04-25T13:11:06;14.00;99.90
23267;DHT22;11802;53.160;8.214;2023-04-25T13:13:31;14.30;99.90
23267;DHT22;11802;53.160;8.214;2023-04-25T13:15:58;14.50;99.90
23267;DHT22;11802;53.160;8.214;2023-04-25T13:18:23;14.60;99.90
23267;DHT22;11802;53.160;8.214;2023-04-25T13:20:52;14.90;99.90
23267;DHT22;11802;53.160;8.214;2023-04-25T13:23:18;14.70;99.90
23267;DHT22;11802;53.160;8.214;2023-04-25T13:25:44;14.70;99.90
23267;DHT22;11802;53.160;8.214;2023-04-25T13:28:10;14.40;99.90
23267;DHT22;11802;53.160;8.214;2023-04-25T13:30:36;14.80;99.90
23267;DHT22;11802;53.160;8.214;2023-04-25T13:33:02;15.20;99.90
23267;DHT22;11802;53.160;8.214;2023-04-25T13:35:29;15.20;99.90
23267;DHT22;11802;53.160;8.214;2023-04-25T13:37:55;15.10;99.90
23267;DHT22;11802;53.160;8.214;2023-04-25T13:40:21;15.20;99.90
23267;DHT22;11802;53.160;8.214;2023-04-25T13:42:47;15.70;99.90
23267;DHT22;11802;53.160;8.214;2023-04-25T13:45:12;15.80;99.90
23267;DHT22;11802;53.160;8.214;2023-04-25T13:47:38;15.70;99.90
23267;DHT22;11802;53.160;8.214;2023-04-25T13:50:05;15.50;99.90
23267;DHT22;11802;53.160;8.214;2023-04-25T13:52:31;15.40;99.90
23267;DHT22;11802;53.160;8.214;2023-04-25T13:54:57;15.20;99.90
23267;DHT22;11802;53.160;8.214;2023-04-25T13:57:22;15.30;99.90
23267;DHT22;11802;53.160;8.214;2023-04-25T13:59:48;14.90;1.00
23267;DHT22;11802;53.160;8.214;2023-04-25T14:02:14;15.40;1.00
23267;DHT22;11802;53.160;8.214;2023-04-25T14:04:40;15.40;1.00
23267;DHT22;11802;53.160;8.214;2023-04-25T14:07:06;15.50;99.90
23267;DHT22;11802;53.160;8.214;2023-04-25T14:09:32;15.80;99.90
23267;DHT22;11802;53.160;8.214;2023-04-25T14:11:57;16.10;99.90
23267;DHT22;11802;53.160;8.214;2023-04-25T14:14:23;16.40;99.90
23267;DHT22;11802;53.160;8.214;2023-04-25T14:16:49;16.40;99.90
23267;DHT22;11802;53.160;8.214;2023-04-25T14:19:16;16.60;99.90
23267;DHT22;11802;53.160;8.214;2023-04-25T14:21:42;16.40;99.90
23267;DHT22;11802;53.160;8.214;2023-04-25T14:24:11;16.30;99.90
23267;DHT22;11802;53.160;8.214;2023-04-25T14:26:36;15.70;99.90
23267;DHT22;11802;53.160;8.214;2023-04-25T14:29:05;15.90;99.90
23267;DHT22;11802;53.160;8.214;2023-04-25T14:31:32;15.90;99.90
23267;DHT22;11802;53.160;8.214;2023-04-25T14:33:58;15.20;99.90
23267;DHT22;11802;53.160;8.214;2023-04-25T14:36:24;14.80;99.90
23267;DHT22;11802;53.160;8.214;2023-04-25T14:38:52;14.90;99.90
23267;DHT22;11802;53.160;8.214;2023-04-25T14:41:17;15.40;99.90
23267;DHT22;11802;53.160;8.214;2023-04-25T14:43:43;15.60;99.90
23267;DHT22;11802;53.160;8.214;2023-04-25T14:46:10;15.60;99.90
23267;DHT22;11802;53.160;8.214;2023-04-25T14:48:36;15.40;99.90
23267;DHT22;11802;53.160;8.214;2023-04-25T14:51:02;14.80;99.90
23267;DHT22;11802;53.160;8.214;2023-04-25T14:53:27;14.00;1.00
23267;DHT22;11802;53.160;8.214;2023-04-25T14:55:53;13.90;1.00
23267;DHT22;11802;53.160;8.214;2023-04-25T14:58:19;13.70;1.00
23267;DHT22;11802;53.160;8.214;2023-04-25T15:00:45;13.30;1.00
23267;DHT22;11802;53.160;8.214;2023-04-25T15:03:12;13.30;15.50
23267;DHT22;11802;53.160;8.214;2023-04-25T15:05:39;13.50;1.00
23267;DHT22;11802;53.160;8.214;2023-04-25T15:08:05;13.30;1.00
23267;DHT22;11802;53.160;8.214;2023-04-25T15:10:31;13.20;1.00
23267;DHT22;11802;53.160;8.214;2023-04-25T15:12:57;12.90;1.00
23267;DHT22;11802;53.160;8.214;2023-04-25T15:15:23;13.10;20.70
23267;DHT22;11802;53.160;8.214;2023-04-25T15:17:49;13.50;1.00
23267;DHT22;11802;53.160;8.214;2023-04-25T15:20:15;13.80;1.00
23267;DHT22;11802;53.160;8.214;2023-04-25T15:22:42;13.70;1.00
23267;DHT22;11802;53.160;8.214;2023-04-25T15:25:08;13.50;1.00
23267;DHT22;11802;53.160;8.214;2023-04-25T15:27:38;13.50;1.00
23267;DHT22;11802;53.160;8.214;2023-04-25T15:30:07;13.40;99.90
23267;DHT22;11802;53.160;8.214;2023-04-25T15:32:35;13.60;1.00
23267;DHT22;11802;53.160;8.214;2023-04-25T15:35:03;13.80;99.90
23267;DHT22;11802;53.160;8.214;2023-04-25T15:37:29;13.70;99.90
23267;DHT22;11802;53.160;8.214;2023-04-25T15:40:04;13.60;99.90
23267;DHT22;11802;53.160;8.214;2023-04-25T15:42:41;13.70;99.90
23267;DHT22;11802;53.160;8.214;2023-04-25T15:45:08;13.60;99.90
23267;DHT22;11802;53.160;8.214;2023-04-25T15:47:34;13.40;1.00
23267;DHT22;11802;53.160;8.214;2023-04-25T15:50:01;13.20;1.00
23267;DHT22;11802;53.160;8.214;2023-04-25T15:52:26;13.10;1.00